createdAt,value
2023-01-13T00:01:48.915Z,100227.15
2023-01-13T00:05:20.303Z,100231.51
2023-01-13T00:09:09.129Z,100233.59
2023-01-13T00:12:58.230Z,100230.44
2023-01-13T00:16:46.382Z,100222.41
2023-01-13T00:20:35.281Z,100218.94
2023-01-13T00:23:50.733Z,100220.84
2023-01-13T00:27:39.493Z,100223.45
2023-01-13T00:31:13.786Z,100227.10
2023-01-13T00:35:02.679Z,100221.02
2023-01-13T00:38:51.584Z,100217.36
2023-01-13T00:42:38.939Z,100212.83
2023-01-13T00:46:27.754Z,100206.55
2023-01-13T00:50:16.583Z,100199.62
2023-01-13T00:53:57.825Z,100207.80
2023-01-13T00:57:46.634Z,100208.34
2023-01-13T01:01:35.215Z,100211.14
2023-01-13T01:05:24.134Z,100210.98
2023-01-13T01:09:12.903Z,100210.83
2023-01-13T01:13:01.769Z,100203.52
2023-01-13T01:16:50.544Z,100198.16
2023-01-13T01:20:19.119Z,100187.73
2023-01-13T01:24:10.660Z,100182.86
2023-01-13T01:27:59.586Z,100182.89
2023-01-13T01:31:48.430Z,100177.48
2023-01-13T01:35:37.245Z,100178.36
2023-01-13T01:39:18.831Z,100175.23
2023-01-13T01:43:05.607Z,100171.23
2023-01-13T01:46:54.457Z,100167.57
2023-01-13T01:50:41.618Z,100159.76
2023-01-13T01:54:23.195Z,100156.10
2023-01-13T01:58:12.064Z,100149.67
2023-01-13T02:01:49.641Z,100141.84
2023-01-13T02:05:41.402Z,100143.95
2023-01-13T02:09:30.260Z,100138.91
2023-01-13T02:13:19.086Z,100135.79
2023-01-13T02:16:55.601Z,100132.48
2023-01-13T02:20:53.141Z,100127.95
2023-01-13T02:25:14.954Z,100132.48
2023-01-13T02:29:17.600Z,100132.14
2023-01-13T02:33:15.069Z,100130.05
2023-01-13T02:37:08.182Z,100120.67
2023-01-13T02:40:55.764Z,100119.80
2023-01-13T02:44:44.627Z,100114.57
2023-01-13T02:48:27.186Z,100114.75
2023-01-13T02:52:15.999Z,100116.48
2023-01-13T02:56:07.733Z,100109.01
2023-01-13T02:59:56.472Z,100111.09
2023-01-13T03:03:33.671Z,100109.19
2023-01-13T03:07:13.462Z,100107.96
2023-01-13T03:11:00.180Z,100098.75
2023-01-13T03:14:51.841Z,100094.23
2023-01-13T03:18:49.485Z,100092.64
2023-01-13T03:22:39.458Z,100090.91
2023-01-13T03:26:23.598Z,100093.51
2023-01-13T03:30:10.728Z,100098.04
2023-01-13T03:34:20.431Z,100092.45
2023-01-13T03:38:00.574Z,100093.85
2023-01-13T03:41:57.931Z,100086.02
2023-01-13T03:45:58.821Z,100085.17
2023-01-13T03:49:47.618Z,100087.64
2023-01-13T03:53:51.272Z,100078.77
2023-01-13T03:57:39.998Z,100076.53
2023-01-13T04:01:28.913Z,100076.54
2023-01-13T04:05:11.970Z,100082.11
2023-01-13T04:09:03.586Z,100082.12
2023-01-13T04:12:52.169Z,100076.02
2023-01-13T04:16:41.030Z,100073.95
2023-01-13T04:20:29.729Z,100073.77
2023-01-13T04:24:18.471Z,100076.73
2023-01-13T04:28:07.255Z,100072.55
2023-01-13T04:31:48.502Z,100069.92
2023-01-13T04:35:37.235Z,100064.70
2023-01-13T04:39:24.809Z,100061.73
2023-01-13T04:43:13.519Z,100058.25
2023-01-13T04:47:01.144Z,100059.98
2023-01-13T04:50:49.052Z,100059.98
2023-01-13T04:54:37.784Z,100058.92
2023-01-13T04:58:26.536Z,100060.14
2023-01-13T05:02:15.272Z,100056.98
2023-01-13T05:06:04.167Z,100055.44
2023-01-13T05:09:52.912Z,100061.86
2023-01-13T05:13:39.957Z,100057.85
2023-01-13T05:17:28.659Z,100051.59
2023-01-13T05:21:10.158Z,100056.11
2023-01-13T05:24:57.087Z,100052.98
2023-01-13T05:28:45.876Z,100056.30
2023-01-13T05:32:34.592Z,100057.87
2023-01-13T05:36:23.382Z,100057.17
2023-01-13T05:40:03.083Z,100056.82
2023-01-13T05:43:54.361Z,100053.00
2023-01-13T05:47:43.098Z,100050.39
2023-01-13T05:51:24.528Z,100059.09
2023-01-13T05:55:13.229Z,100069.54
2023-01-13T05:59:01.990Z,100069.70
2023-01-13T06:02:49.961Z,100074.40
2023-01-13T06:05:58.385Z,100070.75
2023-01-13T06:09:27.035Z,100068.66
2023-01-13T06:13:15.755Z,100072.31
2023-01-13T06:17:00.246Z,100078.03
2023-01-13T06:20:49.132Z,100081.51
2023-01-13T06:24:37.918Z,100083.95
2023-01-13T06:28:26.634Z,100078.55
2023-01-13T06:32:15.444Z,100076.63
2023-01-13T06:36:04.254Z,100075.41
2023-01-13T06:39:52.980Z,100074.00
2023-01-13T06:43:37.537Z,100076.79
2023-01-13T06:47:26.272Z,100088.29
2023-01-13T06:51:15.126Z,100087.60
2023-01-13T06:55:03.884Z,100090.37
2023-01-13T06:58:33.276Z,100084.98
2023-01-13T07:01:33.230Z,100085.85
2023-01-13T07:05:22.191Z,100091.23
2023-01-13T07:09:10.958Z,100089.14
2023-01-13T07:12:59.756Z,100087.04
2023-01-13T07:16:57.385Z,100083.38
2023-01-13T07:20:38.716Z,100082.64
2023-01-13T07:24:30.228Z,100085.44
2023-01-13T07:28:18.961Z,100084.02
2023-01-13T07:31:57.660Z,100082.11
2023-01-13T07:35:46.519Z,100082.95
2023-01-13T07:39:27.906Z,100084.16
2023-01-13T07:42:59.935Z,100086.58
2023-01-13T07:46:48.708Z,100086.06
2023-01-13T07:50:37.455Z,100090.75
2023-01-13T07:54:39.777Z,100085.36
2023-01-13T07:58:29.587Z,100083.08
2023-01-13T08:02:18.532Z,100090.20
2023-01-13T08:06:07.437Z,100091.59
2023-01-13T08:09:44.996Z,100089.33
2023-01-13T08:13:39.736Z,100093.67
2023-01-13T08:17:28.472Z,100090.14
2023-01-13T08:21:17.229Z,100094.15
2023-01-13T08:24:48.452Z,100093.23
2023-01-13T08:28:37.372Z,100089.90
2023-01-13T08:32:26.103Z,100097.71
2023-01-13T08:36:13.460Z,100097.51
2023-01-13T08:40:02.175Z,100098.01
2023-01-13T08:43:43.800Z,100094.85
2023-01-13T08:47:24.978Z,100098.64
2023-01-13T08:51:13.827Z,100098.78
2023-01-13T08:55:02.529Z,100107.80
2023-01-13T08:58:51.257Z,100106.37
2023-01-13T09:02:40.017Z,100107.20
2023-01-13T09:06:21.406Z,100112.04
2023-01-13T09:10:10.116Z,100114.80
2023-01-13T09:13:58.865Z,100105.52
2023-01-13T09:17:47.672Z,100108.27
2023-01-13T09:21:36.392Z,100105.62
2023-01-13T09:25:25.150Z,100103.13
2023-01-13T09:29:13.895Z,100097.35
2023-01-13T09:33:02.715Z,100092.24
2023-01-13T09:36:51.489Z,100093.25
2023-01-13T09:40:40.227Z,100094.44
2023-01-13T09:44:16.608Z,100090.56
2023-01-13T09:48:05.441Z,100088.42
2023-01-13T09:52:02.899Z,100080.56
2023-01-13T09:56:00.488Z,100084.70
2023-01-13T09:59:51.861Z,100083.27
2023-01-13T10:04:01.646Z,100081.11
2023-01-13T10:07:50.377Z,100074.44
2023-01-13T10:11:40.170Z,100071.79
2023-01-13T10:15:41.110Z,100064.60
2023-01-13T10:19:28.119Z,100062.29
2023-01-13T10:23:31.849Z,100062.25
2023-01-13T10:27:21.947Z,100063.05
2023-01-13T10:31:13.690Z,100057.60
2023-01-13T10:34:54.982Z,100055.09
2023-01-13T10:38:36.591Z,100049.09
2023-01-13T10:42:25.415Z,100051.85
2023-01-13T10:46:14.261Z,100047.77
2023-01-13T10:50:07.053Z,100042.63
2023-01-13T10:53:36.497Z,100040.82
2023-01-13T10:57:25.221Z,100040.23
2023-01-13T11:01:17.015Z,100038.78
2023-01-13T11:05:05.976Z,100036.60
2023-01-13T11:09:06.610Z,100034.23
2023-01-13T11:13:11.589Z,100024.71
2023-01-13T11:17:06.186Z,100030.02
2023-01-13T11:20:54.937Z,100028.36
2023-01-13T11:24:41.936Z,100033.15
2023-01-13T11:28:36.519Z,100028.20
2023-01-13T11:32:28.255Z,100026.54
2023-01-13T11:36:18.933Z,100023.02
2023-01-13T11:40:17.889Z,100020.84
2023-01-13T11:44:09.232Z,100018.48
2023-01-13T11:47:57.927Z,100017.58
2023-01-13T11:51:49.773Z,100009.86
2023-01-13T11:55:50.578Z,100005.25
2023-01-13T11:59:36.279Z,100005.92
2023-01-13T12:03:34.055Z,100002.56
2023-01-13T12:07:23.390Z,100003.76
2023-01-13T12:11:27.344Z,100000.59
2023-01-13T12:15:34.020Z,100004.23
2023-01-13T12:19:26.942Z,99999.11
2023-01-13T12:23:21.663Z,99999.43
2023-01-13T12:27:05.690Z,100000.45
2023-01-13T12:30:56.978Z,100002.70
2023-01-13T12:34:53.864Z,100003.89
2023-01-13T12:38:36.957Z,100003.84
2023-01-13T12:42:37.524Z,99999.83
2023-01-13T12:46:26.290Z,99996.13
2023-01-13T12:50:17.817Z,99999.58
2023-01-13T12:54:24.631Z,99997.23
2023-01-13T12:58:15.648Z,99992.98
2023-01-13T13:02:02.871Z,99992.41
2023-01-13T13:06:13.669Z,99996.38
2023-01-13T13:10:14.167Z,100001.75
2023-01-13T13:14:20.814Z,100007.30
2023-01-13T13:18:10.879Z,100005.00
2023-01-13T13:21:59.596Z,100007.06
2023-01-13T13:26:00.349Z,100008.45
2023-01-13T13:30:04.431Z,100015.59
2023-01-13T13:33:36.047Z,100011.91
2023-01-13T13:37:31.158Z,100011.21
2023-01-13T13:41:05.524Z,100014.70
2023-01-13T13:44:51.802Z,100011.75
2023-01-13T13:48:40.675Z,100014.34
2023-01-13T13:52:29.469Z,100018.73
2023-01-13T13:56:18.300Z,100020.13
2023-01-13T14:00:07.133Z,100022.76
2023-01-13T14:04:01.608Z,100027.65
2023-01-13T14:08:01.904Z,100030.98
2023-01-13T14:11:54.861Z,100030.11
2023-01-13T14:15:43.689Z,100026.27
2023-01-13T14:19:29.934Z,100030.83
2023-01-13T14:23:09.676Z,100034.67
2023-01-13T14:26:20.685Z,100037.66
2023-01-13T14:29:30.297Z,100035.23
2023-01-13T14:33:09.145Z,100030.88
2023-01-13T14:36:18.623Z,100032.45
2023-01-13T14:40:06.227Z,100031.45
2023-01-13T14:43:10.375Z,100031.48
2023-01-13T14:46:53.787Z,100030.79
2023-01-13T14:50:34.752Z,100033.60
2023-01-13T14:54:05.742Z,100036.40
2023-01-13T14:57:25.836Z,100035.88
2023-01-13T15:00:39.548Z,100038.52
2023-01-13T15:03:21.696Z,100037.47
2023-01-13T15:06:30.255Z,100035.06
2023-01-13T15:10:01.079Z,100035.23
2023-01-13T15:13:53.468Z,100031.08
2023-01-13T15:17:15.065Z,100029.73
2023-01-13T15:21:03.831Z,100027.13
2023-01-13T15:24:52.560Z,100019.27
2023-01-13T15:28:31.904Z,100017.38
2023-01-13T15:32:03.380Z,100016.53
2023-01-13T15:35:33.046Z,100015.66
2023-01-13T15:38:50.327Z,100020.02
2023-01-13T15:42:51.341Z,100017.06
2023-01-13T15:46:58.144Z,100015.10
2023-01-13T15:50:41.961Z,100018.40
2023-01-13T15:54:30.813Z,100019.06
2023-01-13T15:58:26.082Z,100020.96
2023-01-13T16:02:15.775Z,100024.80
2023-01-13T16:06:04.635Z,100030.39
2023-01-13T16:09:53.408Z,100026.17
2023-01-13T16:13:42.161Z,100023.71
2023-01-13T16:17:13.046Z,100023.17
2023-01-13T16:21:12.696Z,100024.92
2023-01-13T16:25:26.801Z,100030.14
2023-01-13T16:29:32.492Z,100036.61
2023-01-13T16:37:29.696Z,100043.23
2023-01-13T16:41:07.032Z,100040.58
2023-01-13T16:44:06.291Z,100042.33
2023-01-13T16:46:54.720Z,100036.70
2023-01-13T16:49:35.192Z,100039.84
2023-01-13T16:53:35.983Z,100038.79
2023-01-13T16:57:27.185Z,100040.16
2023-01-13T17:01:14.984Z,100040.15
2023-01-13T17:04:25.857Z,100040.85
2023-01-13T17:07:16.398Z,100040.88
2023-01-13T17:10:23.596Z,100041.19
2023-01-13T17:13:31.991Z,100039.60
2023-01-13T17:17:13.217Z,100040.66
2023-01-13T17:20:21.562Z,100043.61
2023-01-13T17:23:50.069Z,100047.25
2023-01-13T17:27:25.003Z,100049.71
2023-01-13T17:30:42.987Z,100049.17
2023-01-13T17:34:13.815Z,100054.58
2023-01-13T17:38:02.554Z,100053.51
2023-01-13T17:41:51.348Z,100057.50
2023-01-13T17:45:40.077Z,100056.77
2023-01-13T17:49:28.830Z,100057.98
2023-01-13T17:53:17.587Z,100058.33
2023-01-13T17:57:06.423Z,100065.63
2023-01-13T18:00:55.497Z,100068.43
2023-01-13T18:04:26.759Z,100071.41
2023-01-13T18:07:58.575Z,100072.64
2023-01-13T18:11:47.492Z,100066.88
2023-01-13T18:15:36.206Z,100068.46
2023-01-13T18:19:17.779Z,100064.11
2023-01-13T18:23:04.923Z,100064.31
2023-01-13T18:26:17.327Z,100064.67
2023-01-13T18:29:08.136Z,100065.88
2023-01-13T18:32:21.934Z,100069.03
2023-01-13T18:35:16.375Z,100067.63
2023-01-13T18:38:34.997Z,100072.02
2023-01-13T18:43:09.072Z,100072.00
2023-01-13T18:46:24.508Z,100071.83
2023-01-13T18:50:13.346Z,100080.38
2023-01-13T18:54:02.010Z,100083.70
2023-01-13T18:57:50.758Z,100087.91
2023-01-13T19:01:29.615Z,100097.03
2023-01-13T19:05:18.396Z,100095.81
2023-01-13T19:09:07.130Z,100094.59
2023-01-13T19:12:55.903Z,100101.95
2023-01-13T19:16:34.445Z,100099.16
2023-01-13T19:20:13.075Z,100100.73
2023-01-13T19:24:01.960Z,100108.60
2023-01-13T19:27:50.734Z,100113.49
2023-01-13T19:31:38.546Z,100114.38
2023-01-13T19:35:27.456Z,100116.45
2023-01-13T19:38:57.102Z,100114.73
2023-01-13T19:42:43.911Z,100121.20
2023-01-13T19:46:05.200Z,100128.02
2023-01-13T19:49:02.439Z,100128.53
2023-01-13T19:52:22.572Z,100128.38
2023-01-13T19:55:56.547Z,100135.23
2023-01-13T19:59:45.291Z,100136.11
2023-01-13T20:02:44.703Z,100142.23
2023-01-13T20:06:32.936Z,100146.09
2023-01-13T20:10:11.488Z,100150.84
2023-01-13T20:14:00.187Z,100153.46
2023-01-13T20:17:48.904Z,100158.20
2023-01-13T20:21:37.704Z,100160.49
2023-01-13T20:25:06.450Z,100160.69
2023-01-13T20:28:42.477Z,100164.00
2023-01-13T20:32:31.236Z,100170.99
2023-01-13T20:36:12.415Z,100172.92
2023-01-13T20:40:07.229Z,100175.91
2023-01-13T20:43:55.939Z,100175.76
2023-01-13T20:47:44.853Z,100192.02
2023-01-13T20:51:33.706Z,100196.09
2023-01-13T20:55:22.656Z,100204.69
2023-01-13T20:59:11.450Z,100204.73
2023-01-13T21:03:00.178Z,100207.39
2023-01-13T21:06:48.876Z,100206.89
2023-01-13T21:10:37.657Z,100210.23
2023-01-13T21:14:24.536Z,100208.88
2023-01-13T21:18:11.628Z,100214.66
2023-01-13T21:22:03.233Z,100218.02
2023-01-13T21:25:52.003Z,100220.33
2023-01-13T21:29:40.708Z,100218.80
2023-01-13T21:33:29.576Z,100221.80
2023-01-13T21:37:18.400Z,100223.22
2023-01-13T21:41:07.276Z,100227.81
2023-01-13T21:44:54.782Z,100227.98
2023-01-13T21:48:43.506Z,100239.36
2023-01-13T21:52:22.089Z,100235.04
2023-01-13T21:56:10.889Z,100235.41
2023-01-13T21:59:59.593Z,100234.24
2023-01-13T22:03:38.068Z,100239.17
2023-01-13T22:07:27.391Z,100243.93
2023-01-13T22:11:22.145Z,100240.48
2023-01-13T22:15:10.887Z,100241.90
2023-01-13T22:18:59.601Z,100239.48
2023-01-13T22:22:48.342Z,100247.38
2023-01-13T22:26:42.801Z,100250.58
2023-01-13T22:30:31.575Z,100252.20
2023-01-13T22:34:09.546Z,100257.32
2023-01-13T22:37:58.298Z,100261.56
2023-01-13T22:41:46.968Z,100265.98
2023-01-13T22:45:20.711Z,100272.86
2023-01-13T22:49:09.431Z,100269.77
2023-01-13T22:52:38.033Z,100277.34
2023-01-13T22:56:36.034Z,100279.85
2023-01-13T23:00:14.578Z,100281.68
2023-01-13T23:04:03.505Z,100281.92
2023-01-13T23:07:52.383Z,100287.73
2023-01-13T23:11:47.839Z,100292.46
2023-01-13T23:15:27.738Z,100290.27
2023-01-13T23:19:16.512Z,100288.04
2023-01-13T23:22:40.656Z,100288.27
2023-01-13T23:26:47.417Z,100289.86
2023-01-13T23:29:56.232Z,100289.74
2023-01-13T23:33:16.951Z,100295.17
2023-01-13T23:37:05.775Z,100293.30
2023-01-13T23:40:54.583Z,100291.95
2023-01-13T23:44:26.032Z,100289.20
2023-01-13T23:47:44.530Z,100288.70
2023-01-13T23:51:39.267Z,100291.69
2023-01-13T23:55:03.799Z,100290.68
2023-01-13T23:58:42.617Z,100289.14
